Airfield :
LOGIN :

Register | Disclaimer

   EN    FR    IT 

 










Legend :    VFR   Marginal VFR   IFR   Intensive IFR   Very Intensive IFR
Visi :
Ceiling :
>= 8 km
>= 3000ft
5 to 8 km
1000 to 3000 ft
1500m to 5 km
500 to 1000 ft
800 to 1500m
200 to 500 ft
< 800m
< 200 ft
Symbols :   Thunderstorms  Fog  Heavy snow  Heavy precipitations  Wind > 20 kt
SIGMETs :     Misc.  Thunderstorms  Icing  Turbulence  Mountain Waves  Volcanic Ashes






- Airport Elevation : 277 ft
- IATA code : JER


EGJJ - Jersey

CURRENT METAR :
  • 112150Z 29012KT 9999 VCSH FEW015CB SCT030 07/04 Q1007

EXPIRED METARs :
  • 112120Z 32012KT 9999 VCSH FEW015CB SCT025 07/03 Q1007
  • 112050Z 31011KT 280V350 9999 VCSH FEW015CB SCT029 07/03 Q1007 RESHRA
  • 112020Z 30017KT 9999 VCSH FEW014CB SCT030 07/03 Q1007
  • 111950Z 30016G26KT 9999 VCSH FEW014CB SCT033 06/02 Q1006
  • 111920Z 30013G24KT 9999 VCSH FEW018CB SCT029 06/03 Q1006

TAF TAF EGJJ
Valid from the 11 at 21:00 until the 12 at 06:00 UTC


112004Z 1121/1206 29014KT 9999 FEW015CB SCT025
TEMPO 1121/1200 28018G32KT 8000 SHRA BKN014CB
PROB30
TEMPO 1121/1123 3000 +TSRAGS BKN010CB
BECMG 1204/1206 21020KT 8000 RA BKN012
ATIS : +44 1534 498 073



MET'MAP, your aeronautical weather chart ! - Copyright ORBIFLY December 2007 - Disclaimer

ORBIFLY MET'MAP TEAM :

Programming & Development : Alexandra Zaïnal
Concept & original design : Baudouin d'Aumeries
Assistance for programming : Marc-Olivier Méhu
Technical & hardware support : Manuel Goepfert

Contact : metmap@orbifly.com




SOURCES & CREDITS :

   NOAA